Buxton, NC (27920)

4:48 AM EDT on July 12, 2014 (GMT -0400)
KNCBUXTO2 Elev 42 ft | 35.26 °N, 75.53 °W | Change Station

Current weather conditions updated 3 minutes ago

Mostly Cloudy
Mostly Cloudy
75.2 °F
Feels Like 74 °F
N
0.0
Wind Variable Wind from East

Today is forecast to be Cooler than yesterday. Thunderstorms early.

Today
High -- | Low -- °F
--% Chance of Precip.
Yesterday
High -- | Low -- °F
Precip. -- in
5:56 AM 8:18 PM
Full, 100% visible
Pressure 30.17 in
Visibility 10.0 miles
Clouds Few 8500 ft
Mostly Cloudy 11000 ft
Heat Index 74 °F
Dew Point 74 °F
Humidity 95%
Rainfall 0.00 in
Snow Depth Not available.
UV 0 out of 12
Pollen 3.90 out of 12
Air Quality Not available.
Flu Activity No Activity
METAR KHSE 120751Z AUTO 07003KT 10SM FEW085 BKN110 24/23 A3017 RMK AO2 SLP217 T02440233 TSNO

More Conditions Fewer Conditions

Pressure 30.17 in
Visibility 10.0 miles
Clouds Few 8500 ft
Mostly Cloudy 11000 ft
Heat Index 74 °F
Dew Point 74 °F
Humidity 95%
Rainfall 0.00 in
Snow Depth Not available.
UV 0 out of 12
Pollen 3.90 out of 12
Air Quality Not available.
Flu Activity No Activity
METAR KHSE 120751Z AUTO 07003KT 10SM FEW085 BKN110 24/23 A3017 RMK AO2 SLP217 T02440233 TSNO

More Conditions Fewer Conditions

10-Day Weather Forecast

Almanac

Astronomy

Jul. 12, 2014 Rise Set
Actual Time 5:56 AM EDT 8:18 PM EDT
Civil Twilight 5:27 AM EDT 8:47 PM EDT
Nautical Twilight 4:51 AM EDT 9:23 PM EDT
Astronomical Twilight 4:12 AM EDT 10:02 PM EDT
Moon 8:22 PM EDT 6:10 AM EDT
Length of Visible Light 15h 19m
Length of Day
14h 21m
Tomorrow will be 1m 1s shorter.
Full, 100% of the Moon is Illuminated
Today
Full
Jul 12
Full
Jul 18
Last Quarter
Jul 26
New
Aug 3
First Quarter

Today's Extremes

State Highs State Lows

Community

WunderPhotos

Upload Photos

1,732,746 photos uploaded!

Nearby

Snow Depth

Station Depth Elevation
No new snow has been reported.

Earthquake Activity

City Distance Mag. Time & Date
No recent earthquake activity has been reported nearby.
Minimum magnitude displayed is 2.5.

Coastal Water Temperatures

Place Temperature
Beaufort, NC 82.0 °F
Hatteras, NC 81.0 °F
Oregon Inlet Marina, NC 75.0 °F
Duck Pier, NC 71.1 °F
Johnny Mercer Pier, Wrightsville Beach, NC 82.9 °F

Nearby Weather Stations

Station Location Temp. Heat Index Dew Point Humidity Wind Precip. Elev Updated Type
Buxton, NC 75.2 °F 74 °F 74 °F 95% East  at  0.0 mph - / hr 42 ft 3:45 AM EST Normal
Frisco, NC, Hatteras, NC 75.5 °F 74 °F 74 °F 96% NE  at  0.0 mph 0.00 in / hr 55 ft 4:46 AM EDT Normal
Sandbaggas, Hatteras, NC 75.7 °F 75 °F 74 °F 93% SE  at  2.7 mph - / hr 16 ft 4:34 AM EDT Normal

Show More Stations Show Fewer Stations